KGRK/GRK METAR and TAF weather

Enter ICAO airport designator
Station Type Date Time Source
KGRK METAR 2022/12/04 11:55 UTC NOAA

KGRK 041155Z AUTO 36008KT 9SM BKN021 OVC030 09/04 A3030 RMK AO2 RAB01E13RAB17E28 SLP261 P0000 60000 T00910041 10108 20091 50001


Station Type Date Time Source
KGRK Decoded METAR 2022/12/04 11:55 UTC NOAA

Fort Hood, Robert Gray AAF Ft Hood, TX, United States (KGRK) 31-04N 097-49W
Dec 04, 2022 - 06:55 AM EST / 2022.12.04 1155 UTC
Wind: from the N (360 degrees) at 9 MPH (8 KT):0
Visibility: 9 mile(s):0
Sky conditions: overcast
Precipitation last hour: A trace
Temperature: 48.4 F (9.1 C)
Dew Point: 39.4 F (4.1 C)
Relative Humidity: 70%
Pressure (altimeter): 30.3 in. Hg (1026 hPa)
Pressure tendency: 0.00 inches (0.1 hPa) higher than three hours ago
ob: KGRK 041155Z AUTO 36008KT 9SM BKN021 OVC030 09/04 A3030 RMK AO2 RAB01E13RAB17E28 SLP261 P0000 60000 T00910041 10108 20091 50001
cycle: 12

Station Type Date Time Source
KGRK TAF 2022/12/04 08:20 UTC NOAA

TAF KGRK 040800Z 0408/0514 VRB06KT 9999 OVC030 QNH3011INS
BECMG 0501/0502 VRB06KT 9999 BKN010 OVC020 QNH3008INS TX16/0418Z TN11/0408Z

Example: see airport list